createdAt,value
2018-07-13T00:00:14.564Z,3.60
2018-07-13T00:02:43.941Z,3.63
2018-07-13T00:05:13.322Z,3.20
2018-07-13T00:07:42.431Z,3.20
2018-07-13T00:10:11.817Z,3.10
2018-07-13T00:12:40.933Z,3.40
2018-07-13T00:15:11.167Z,2.73
2018-07-13T00:17:40.543Z,3.10
2018-07-13T00:20:09.923Z,3.00
2018-07-13T00:22:39.286Z,3.67
2018-07-13T00:25:08.676Z,3.37
2018-07-13T00:27:38.064Z,3.47
2018-07-13T00:30:09.576Z,3.20
2018-07-13T00:32:38.963Z,3.53
2018-07-13T00:35:08.362Z,2.90
2018-07-13T00:37:37.716Z,2.97
2018-07-13T00:40:07.124Z,2.73
2018-07-13T00:42:36.483Z,3.10
2018-07-13T00:45:05.895Z,3.10
2018-07-13T00:47:35.249Z,3.10
2018-07-13T00:50:04.628Z,3.10
2018-07-13T00:52:33.992Z,3.13
2018-07-13T00:55:03.357Z,3.57
2018-07-13T00:57:32.716Z,3.40
2018-07-13T01:00:01.800Z,3.67
2018-07-13T01:02:31.095Z,3.60
2018-07-13T01:05:00.408Z,3.60
2018-07-13T01:07:29.450Z,3.20
2018-07-13T01:09:58.745Z,4.23
2018-07-13T01:12:28.029Z,3.47
2018-07-13T01:14:57.331Z,3.60
2018-07-13T01:17:26.641Z,3.23
2018-07-13T01:19:55.923Z,3.73
2018-07-13T01:22:25.207Z,3.37
2018-07-13T01:24:54.545Z,3.10
2018-07-13T01:27:27.891Z,3.23
2018-07-13T01:29:58.111Z,3.40
2018-07-13T01:32:27.171Z,3.67
2018-07-13T01:34:56.463Z,3.60
2018-07-13T01:37:25.752Z,3.50
2018-07-13T01:39:55.084Z,3.37
2018-07-13T01:42:24.376Z,3.37
2018-07-13T01:44:53.665Z,3.17
2018-07-13T01:47:22.972Z,3.40
2018-07-13T01:49:52.263Z,2.97
2018-07-13T01:52:21.572Z,3.17
2018-07-13T01:54:50.861Z,3.10
2018-07-13T01:57:20.180Z,3.27
2018-07-13T01:59:49.464Z,3.50
2018-07-13T02:02:18.767Z,3.07
2018-07-13T02:04:48.159Z,3.30
2018-07-13T02:07:17.472Z,3.13
2018-07-13T02:09:46.766Z,3.33
2018-07-13T02:12:16.065Z,3.40
2018-07-13T02:14:45.404Z,3.30
2018-07-13T02:17:14.460Z,3.20
2018-07-13T02:19:43.748Z,3.30
2018-07-13T02:22:13.123Z,3.30
2018-07-13T02:24:42.503Z,3.50
2018-07-13T02:27:11.803Z,3.57
2018-07-13T02:29:41.158Z,3.37
2018-07-13T02:32:10.624Z,3.30
2018-07-13T02:34:39.962Z,3.17
2018-07-13T02:37:09.043Z,3.40
2018-07-13T02:39:38.343Z,3.00
2018-07-13T02:42:07.655Z,3.17
2018-07-13T02:44:36.947Z,4.00
2018-07-13T02:47:06.476Z,3.67
2018-07-13T02:49:35.850Z,3.57
2018-07-13T02:52:05.231Z,3.67
2018-07-13T02:54:34.585Z,3.70
2018-07-13T02:57:03.941Z,3.20
2018-07-13T02:59:33.301Z,3.07
2018-07-13T03:02:02.676Z,3.67
2018-07-13T03:04:32.017Z,3.37
2018-07-13T03:07:01.119Z,3.87
2018-07-13T03:09:30.212Z,3.23
2018-07-13T03:11:59.318Z,3.40
2018-07-13T03:14:28.675Z,3.20
2018-07-13T03:16:58.036Z,4.20
2018-07-13T03:19:27.429Z,3.70
2018-07-13T03:21:56.810Z,3.63
2018-07-13T03:24:25.892Z,4.27
2018-07-13T03:26:55.259Z,4.10
2018-07-13T03:29:24.592Z,4.40
2018-07-13T03:31:53.984Z,4.20
2018-07-13T03:34:23.312Z,3.67
2018-07-13T03:36:52.412Z,4.07
2018-07-13T03:39:21.514Z,3.93
2018-07-13T03:41:50.856Z,3.90
2018-07-13T03:44:20.210Z,3.90
2018-07-13T03:46:49.560Z,3.80
2018-07-13T03:49:18.913Z,3.20
2018-07-13T03:51:48.277Z,3.43
2018-07-13T03:54:18.276Z,3.73
2018-07-13T03:56:47.464Z,3.17
2018-07-13T03:59:16.803Z,3.70
2018-07-13T04:01:46.128Z,3.40
2018-07-13T04:04:15.571Z,3.97
2018-07-13T04:06:44.905Z,3.57
2018-07-13T04:09:14.244Z,3.13
2018-07-13T04:11:43.569Z,3.70
2018-07-13T04:14:12.911Z,3.80
2018-07-13T04:16:42.249Z,3.80
2018-07-13T04:19:11.583Z,4.00
2018-07-13T04:21:40.933Z,3.90
2018-07-13T04:24:10.272Z,4.60
2018-07-13T04:26:40.151Z,4.13
2018-07-13T04:29:09.489Z,3.73
2018-07-13T04:31:38.817Z,4.67
2018-07-13T04:34:09.276Z,4.52
2018-07-13T04:36:38.519Z,4.10
2018-07-13T04:39:10.430Z,4.47
2018-07-13T04:41:39.514Z,4.70
2018-07-13T04:44:09.020Z,4.73
2018-07-13T04:46:38.104Z,4.97
2018-07-13T04:49:07.444Z,5.07
2018-07-13T04:51:36.769Z,4.53
2018-07-13T04:54:06.213Z,5.20
2018-07-13T04:56:35.323Z,5.17
2018-07-13T04:59:04.709Z,4.73
2018-07-13T05:01:34.061Z,5.53
2018-07-13T05:04:03.417Z,5.07
2018-07-13T05:06:32.496Z,4.93
2018-07-13T05:09:01.836Z,4.90
2018-07-13T05:11:31.204Z,5.50
2018-07-13T05:14:00.553Z,5.20
2018-07-13T05:16:29.901Z,5.17
2018-07-13T05:18:59.256Z,5.00
2018-07-13T05:21:28.612Z,5.10
2018-07-13T05:23:57.724Z,5.33
2018-07-13T05:26:27.779Z,5.87
2018-07-13T05:28:57.243Z,5.10
2018-07-13T05:31:26.636Z,5.20
2018-07-13T05:33:55.819Z,5.67
2018-07-13T05:36:25.211Z,5.65
2018-07-13T05:38:54.586Z,5.17
2018-07-13T05:41:23.971Z,5.20
2018-07-13T05:43:53.348Z,5.83
2018-07-13T05:46:22.721Z,5.95
2018-07-13T05:48:52.084Z,6.00
2018-07-13T05:51:21.445Z,6.37
2018-07-13T05:53:50.528Z,6.77
2018-07-13T05:56:19.877Z,6.07
2018-07-13T05:58:49.191Z,5.90
2018-07-13T06:01:18.535Z,5.93
2018-07-13T06:03:47.900Z,5.37
2018-07-13T06:06:17.581Z,5.83
2018-07-13T06:08:46.933Z,5.93
2018-07-13T06:11:16.275Z,4.97
2018-07-13T06:13:45.637Z,5.33
2018-07-13T06:16:14.968Z,5.10
2018-07-13T06:18:44.296Z,5.30
2018-07-13T06:21:13.619Z,4.90
2018-07-13T06:23:42.961Z,5.40
2018-07-13T06:26:12.047Z,5.57
2018-07-13T06:28:41.140Z,5.13
2018-07-13T06:31:10.465Z,5.40
2018-07-13T06:33:39.861Z,5.30
2018-07-13T06:36:09.230Z,5.50
2018-07-13T06:38:38.551Z,5.37
2018-07-13T06:41:07.694Z,5.53
2018-07-13T06:43:37.019Z,5.73
2018-07-13T06:46:07.806Z,5.53
2018-07-13T06:48:37.180Z,6.43
2018-07-13T06:51:06.514Z,5.73
2018-07-13T06:53:35.837Z,6.53
2018-07-13T06:56:05.172Z,6.47
2018-07-13T06:58:51.545Z,6.60
2018-07-13T07:01:20.881Z,5.87
2018-07-13T07:04:24.592Z,6.43
2018-07-13T07:06:54.696Z,6.33
2018-07-13T07:09:24.724Z,6.30
2018-07-13T07:12:20.362Z,5.87
2018-07-13T07:14:49.687Z,5.87
2018-07-13T07:17:19.019Z,6.07
2018-07-13T07:19:48.339Z,6.13
2018-07-13T07:22:17.454Z,6.22
2018-07-13T07:24:46.515Z,6.00
2018-07-13T07:27:15.857Z,6.07
2018-07-13T07:29:45.188Z,6.03
2018-07-13T07:32:14.527Z,5.80
2018-07-13T07:34:43.888Z,5.30
2018-07-13T07:37:13.223Z,5.80
2018-07-13T07:39:42.582Z,6.17
2018-07-13T07:42:11.920Z,5.40
2018-07-13T07:44:41.306Z,6.20
2018-07-13T07:47:10.640Z,6.93
2018-07-13T07:49:39.731Z,5.83
2018-07-13T07:52:09.215Z,5.70
2018-07-13T07:54:38.558Z,5.40
2018-07-13T07:57:07.910Z,7.30
2018-07-13T07:59:37.253Z,5.87
2018-07-13T08:02:06.341Z,6.10
2018-07-13T08:04:35.508Z,5.73
2018-07-13T08:07:05.181Z,5.83
2018-07-13T08:09:34.155Z,5.67
2018-07-13T08:12:03.490Z,4.57
2018-07-13T08:14:32.889Z,5.03
2018-07-13T08:17:02.185Z,5.20
2018-07-13T08:19:31.618Z,5.40
2018-07-13T08:22:11.208Z,5.33
2018-07-13T08:24:40.996Z,4.93
2018-07-13T08:27:14.707Z,4.73
2018-07-13T08:29:44.102Z,4.03
2018-07-13T08:32:13.423Z,4.33
2018-07-13T08:34:42.780Z,3.73
2018-07-13T08:37:12.113Z,4.10
2018-07-13T08:39:41.523Z,3.97
2018-07-13T08:42:10.816Z,4.10
2018-07-13T08:44:40.148Z,4.90
2018-07-13T08:47:09.473Z,5.50
2018-07-13T08:49:38.813Z,4.80
2018-07-13T08:52:09.408Z,5.10
2018-07-13T08:54:38.859Z,4.90
2018-07-13T08:57:08.245Z,5.03
2018-07-13T08:59:37.669Z,4.65
2018-07-13T09:02:07.037Z,4.83
2018-07-13T09:04:36.453Z,4.10
2018-07-13T09:07:05.984Z,4.70
2018-07-13T09:09:35.389Z,4.33
2018-07-13T09:12:04.760Z,4.60
2018-07-13T09:14:33.883Z,5.23
2018-07-13T09:17:03.249Z,4.77
2018-07-13T09:19:32.356Z,5.27
2018-07-13T09:22:01.733Z,4.70
2018-07-13T09:24:31.098Z,4.50
2018-07-13T09:27:00.473Z,4.90
2018-07-13T09:29:29.825Z,4.67
2018-07-13T09:31:59.196Z,5.80
2018-07-13T09:34:28.581Z,6.10
2018-07-13T09:36:57.672Z,5.80
2018-07-13T09:39:27.020Z,4.80
2018-07-13T09:41:56.400Z,4.90
2018-07-13T09:44:25.757Z,5.17
2018-07-13T09:46:55.228Z,5.17
2018-07-13T09:49:25.316Z,4.30
2018-07-13T09:51:54.739Z,4.67
2018-07-13T09:54:24.496Z,5.10
2018-07-13T09:56:53.923Z,4.40
2018-07-13T09:59:23.001Z,5.30
2018-07-13T10:01:52.384Z,4.73
2018-07-13T10:04:21.768Z,4.50
2018-07-13T10:06:51.273Z,5.40
2018-07-13T10:09:20.621Z,4.67
2018-07-13T10:11:50.011Z,4.50
2018-07-13T10:14:19.372Z,4.03
2018-07-13T10:16:48.737Z,3.60
2018-07-13T10:19:18.104Z,4.10
2018-07-13T10:21:48.127Z,3.60
2018-07-13T10:24:19.317Z,4.00
2018-07-13T10:26:48.780Z,3.77
2018-07-13T10:29:30.548Z,4.07
2018-07-13T10:32:00.665Z,3.70
2018-07-13T10:34:30.236Z,4.80
2018-07-13T10:37:03.331Z,3.70
2018-07-13T10:39:33.080Z,4.00
2018-07-13T10:42:02.196Z,3.80
2018-07-13T10:44:31.632Z,4.30
2018-07-13T10:47:01.004Z,3.83
2018-07-13T10:49:30.356Z,3.50
2018-07-13T10:51:59.707Z,3.70
2018-07-13T10:54:29.060Z,4.00
2018-07-13T10:56:58.467Z,3.80
2018-07-13T10:59:27.780Z,3.63
2018-07-13T11:01:56.888Z,3.63
2018-07-13T11:04:25.978Z,4.07
2018-07-13T11:06:55.091Z,3.50
2018-07-13T11:09:24.468Z,3.70
2018-07-13T11:11:53.854Z,3.50
2018-07-13T11:14:23.200Z,3.40
2018-07-13T11:16:52.571Z,3.53
2018-07-13T11:19:21.920Z,3.47
2018-07-13T11:21:51.462Z,3.20
2018-07-13T11:24:20.899Z,3.77
2018-07-13T11:26:50.237Z,3.60
2018-07-13T11:29:19.615Z,3.60
2018-07-13T11:31:48.993Z,3.70
2018-07-13T11:34:18.365Z,3.20
2018-07-13T11:36:47.726Z,3.40
2018-07-13T11:39:17.444Z,3.20
2018-07-13T11:41:46.807Z,2.97
2018-07-13T11:44:16.231Z,2.77
2018-07-13T11:46:45.528Z,3.40
2018-07-13T11:49:14.925Z,3.53
2018-07-13T11:51:44.296Z,2.83
2018-07-13T11:54:13.690Z,3.22
2018-07-13T11:56:43.072Z,3.53
2018-07-13T11:59:12.416Z,3.00
2018-07-13T12:01:41.521Z,3.50
2018-07-13T12:04:10.904Z,3.70
2018-07-13T12:06:40.008Z,3.10
2018-07-13T12:09:09.637Z,3.23
2018-07-13T12:11:39.000Z,4.47
2018-07-13T12:14:08.707Z,3.37
2018-07-13T12:16:38.135Z,3.43
2018-07-13T12:19:07.518Z,3.50
2018-07-13T12:21:36.865Z,3.47
2018-07-13T12:24:06.298Z,3.43
2018-07-13T12:26:35.681Z,3.53
2018-07-13T12:29:05.089Z,3.13
2018-07-13T12:31:34.465Z,3.37
2018-07-13T12:34:03.875Z,3.80
2018-07-13T12:36:33.234Z,3.23
2018-07-13T12:39:02.339Z,3.60
2018-07-13T12:41:31.454Z,3.40
2018-07-13T12:44:00.844Z,3.13
2018-07-13T12:46:30.214Z,3.47
2018-07-13T12:48:59.615Z,3.23
2018-07-13T12:51:28.952Z,3.13
2018-07-13T12:53:58.365Z,3.73
2018-07-13T12:56:27.737Z,3.30
2018-07-13T12:58:57.104Z,3.30
2018-07-13T13:01:26.467Z,3.57
2018-07-13T13:03:55.849Z,3.87
2018-07-13T13:06:25.202Z,3.12
2018-07-13T13:08:54.568Z,3.37
2018-07-13T13:11:23.917Z,3.27
2018-07-13T13:13:53.260Z,3.60
2018-07-13T13:16:22.610Z,3.35
2018-07-13T13:18:51.948Z,3.47
2018-07-13T13:21:21.041Z,3.37
2018-07-13T13:23:50.160Z,3.33
2018-07-13T13:26:19.513Z,3.27
2018-07-13T13:28:48.876Z,3.17
2018-07-13T13:31:18.224Z,3.23
2018-07-13T13:33:47.598Z,3.47
2018-07-13T13:36:16.961Z,3.30
2018-07-13T13:38:46.340Z,3.20
2018-07-13T13:41:15.453Z,3.10
2018-07-13T13:43:44.828Z,3.40
2018-07-13T13:46:14.184Z,3.22
2018-07-13T13:48:43.545Z,2.93
2018-07-13T13:51:12.637Z,3.10
2018-07-13T13:53:42.039Z,3.10
2018-07-13T13:56:11.381Z,3.47
2018-07-13T13:58:40.761Z,3.08
2018-07-13T14:01:09.872Z,2.87
2018-07-13T14:03:39.216Z,3.27
2018-07-13T14:06:09.371Z,2.90
2018-07-13T14:08:38.733Z,2.90
2018-07-13T14:11:08.105Z,2.83
2018-07-13T14:13:37.461Z,2.75
2018-07-13T14:16:06.616Z,2.92
2018-07-13T14:18:35.957Z,3.20
2018-07-13T14:21:05.069Z,3.08
2018-07-13T14:23:34.417Z,3.15
2018-07-13T14:26:03.786Z,2.92
2018-07-13T14:28:33.132Z,3.15
2018-07-13T14:31:02.476Z,3.10
2018-07-13T14:33:31.813Z,3.02
2018-07-13T14:36:01.164Z,3.17
2018-07-13T14:38:30.296Z,3.00
2018-07-13T14:40:59.684Z,2.83
2018-07-13T14:43:29.057Z,2.92
2018-07-13T14:45:58.169Z,3.10
2018-07-13T14:48:27.539Z,3.00
2018-07-13T14:50:56.884Z,3.42
2018-07-13T14:53:26.255Z,3.00
2018-07-13T14:55:55.606Z,2.70
2018-07-13T14:58:24.926Z,2.87
2018-07-13T15:00:54.284Z,2.98
2018-07-13T15:03:23.680Z,3.53
2018-07-13T15:05:53.062Z,3.50
2018-07-13T15:08:22.366Z,3.20
2018-07-13T15:10:51.456Z,2.90
2018-07-13T15:13:20.789Z,2.87
2018-07-13T15:15:50.230Z,2.83
2018-07-13T15:18:19.549Z,3.13
2018-07-13T15:20:48.877Z,2.95
2018-07-13T15:23:18.216Z,3.20
2018-07-13T15:25:47.553Z,2.58
2018-07-13T15:28:16.864Z,3.27
2018-07-13T15:30:45.938Z,2.90
2018-07-13T15:33:15.264Z,3.10
2018-07-13T15:35:44.343Z,2.80
2018-07-13T15:38:13.703Z,3.04
2018-07-13T15:40:43.043Z,2.90
2018-07-13T15:43:12.424Z,2.77
2018-07-13T15:45:41.745Z,3.30
2018-07-13T15:48:11.067Z,3.10
2018-07-13T15:50:40.199Z,3.10
2018-07-13T15:53:09.541Z,3.55
2018-07-13T15:55:44.174Z,3.02
2018-07-13T15:58:13.589Z,3.24
2018-07-13T16:00:42.714Z,3.35
2018-07-13T16:03:12.084Z,2.83
2018-07-13T16:05:41.268Z,2.90
2018-07-13T16:08:10.580Z,3.08
2018-07-13T16:10:39.956Z,3.20
2018-07-13T16:13:09.364Z,2.65
2018-07-13T16:15:38.724Z,3.27
2018-07-13T16:18:09.001Z,2.98
2018-07-13T16:20:38.101Z,2.90
2018-07-13T16:23:07.215Z,3.22
2018-07-13T16:25:36.601Z,2.92
2018-07-13T16:28:05.984Z,3.33
2018-07-13T16:30:35.329Z,2.75
2018-07-13T16:33:04.760Z,3.47
2018-07-13T16:35:34.122Z,4.20
2018-07-13T16:38:03.487Z,3.47
2018-07-13T16:40:32.842Z,2.92
2018-07-13T16:43:07.772Z,3.02
2018-07-13T16:45:37.108Z,3.02
2018-07-13T16:48:06.468Z,2.80
2018-07-13T16:50:35.821Z,2.60
2018-07-13T16:53:05.156Z,3.12
2018-07-13T16:55:34.524Z,2.75
2018-07-13T16:58:03.860Z,2.67
2018-07-13T17:00:33.181Z,3.05
2018-07-13T17:03:02.590Z,2.80
2018-07-13T17:05:31.896Z,3.40
2018-07-13T17:08:01.257Z,3.30
2018-07-13T17:10:30.605Z,2.90
2018-07-13T17:12:59.966Z,2.80
2018-07-13T17:15:29.271Z,2.77
2018-07-13T17:17:58.609Z,2.98
2018-07-13T17:20:28.011Z,2.83
2018-07-13T17:22:57.252Z,2.60
2018-07-13T17:25:26.573Z,2.40
2018-07-13T17:27:55.897Z,2.75
2018-07-13T17:30:25.232Z,3.17
2018-07-13T17:32:54.539Z,2.60
2018-07-13T17:35:23.874Z,2.55
2018-07-13T17:37:53.205Z,2.83
2018-07-13T17:40:22.525Z,2.70
2018-07-13T17:42:51.959Z,2.85
2018-07-13T17:45:20.936Z,2.65
2018-07-13T17:47:50.352Z,2.35
2018-07-13T17:50:19.452Z,2.23
2018-07-13T17:52:48.511Z,2.52
2018-07-13T17:55:17.846Z,2.92
2018-07-13T17:57:47.185Z,2.60
2018-07-13T18:00:16.524Z,2.77
2018-07-13T18:02:45.853Z,2.83
2018-07-13T18:05:15.185Z,3.25
2018-07-13T18:07:44.523Z,3.37
2018-07-13T18:10:13.861Z,3.10
2018-07-13T18:12:43.272Z,2.75
2018-07-13T18:15:12.517Z,2.52
2018-07-13T18:17:41.852Z,3.02
2018-07-13T18:20:10.948Z,3.02
2018-07-13T18:22:40.034Z,2.65
2018-07-13T18:25:09.413Z,3.20
2018-07-13T18:27:38.741Z,2.62
2018-07-13T18:30:10.074Z,2.83
2018-07-13T18:32:39.399Z,2.83
2018-07-13T18:35:08.728Z,2.83
2018-07-13T18:37:38.045Z,2.62
2018-07-13T18:40:08.369Z,4.28
2018-07-13T18:42:37.713Z,3.22
2018-07-13T18:45:07.067Z,3.02
2018-07-13T18:47:36.405Z,2.90
2018-07-13T18:50:06.071Z,2.75
2018-07-13T18:52:35.385Z,3.30
2018-07-13T18:55:04.776Z,3.20
2018-07-13T18:57:34.127Z,2.70
2018-07-13T19:00:03.484Z,2.98
2018-07-13T19:02:32.851Z,3.02
2018-07-13T19:05:02.229Z,2.70
2018-07-13T19:07:31.351Z,2.83
2018-07-13T19:10:00.736Z,2.98
2018-07-13T19:12:30.104Z,2.92
2018-07-13T19:14:59.469Z,2.77
2018-07-13T19:17:28.811Z,2.67
2018-07-13T19:19:58.177Z,3.00
2018-07-13T19:22:27.550Z,2.75
2018-07-13T19:24:56.912Z,3.10
2018-07-13T19:27:26.297Z,2.33
2018-07-13T19:29:55.693Z,3.23
2018-07-13T19:32:25.058Z,3.47
2018-07-13T19:34:54.421Z,2.83
2018-07-13T19:37:23.772Z,2.90
2018-07-13T19:39:53.129Z,3.07
2018-07-13T19:42:22.556Z,3.03
2018-07-13T19:44:51.876Z,2.97
2018-07-13T19:47:21.265Z,3.33
2018-07-13T19:49:50.660Z,3.00
2018-07-13T19:52:20.076Z,3.22
2018-07-13T19:54:49.440Z,3.07
2018-07-13T19:57:18.884Z,3.30
2018-07-13T19:59:48.181Z,3.47
2018-07-13T20:02:17.584Z,3.55
2018-07-13T20:04:46.939Z,3.83
2018-07-13T20:07:16.349Z,3.40
2018-07-13T20:09:45.715Z,3.40
2018-07-13T20:12:15.085Z,3.67
2018-07-13T20:14:44.464Z,3.30
2018-07-13T20:17:13.574Z,3.87
2018-07-13T20:19:42.992Z,3.70
2018-07-13T20:22:12.432Z,4.00
2018-07-13T20:24:41.836Z,3.40
2018-07-13T20:27:11.224Z,3.70
2018-07-13T20:29:40.587Z,3.73
2018-07-13T20:32:09.963Z,3.63
2018-07-13T20:34:39.335Z,3.53
2018-07-13T20:37:08.726Z,3.70
2018-07-13T20:39:38.090Z,3.50
2018-07-13T20:42:07.523Z,3.30
2018-07-13T20:44:36.897Z,2.97
2018-07-13T20:47:06.658Z,3.53
2018-07-13T20:49:36.015Z,3.50
2018-07-13T20:52:05.417Z,3.83
2018-07-13T20:54:34.779Z,3.47
2018-07-13T20:57:04.141Z,3.93
2018-07-13T20:59:33.488Z,3.90
2018-07-13T21:02:02.878Z,3.60
2018-07-13T21:04:32.233Z,3.70
2018-07-13T21:07:01.590Z,4.10
2018-07-13T21:09:30.952Z,4.07
2018-07-13T21:12:00.342Z,3.90
2018-07-13T21:14:29.707Z,3.67
2018-07-13T21:16:58.799Z,3.53
2018-07-13T21:19:28.153Z,4.00
2018-07-13T21:21:57.509Z,3.90
2018-07-13T21:24:26.860Z,3.77
2018-07-13T21:26:56.225Z,4.03
2018-07-13T21:29:25.604Z,3.87
2018-07-13T21:31:54.969Z,4.00
2018-07-13T21:34:24.308Z,4.30
2018-07-13T21:36:53.423Z,3.80
2018-07-13T21:39:22.773Z,3.43
2018-07-13T21:41:52.136Z,3.83
2018-07-13T21:44:21.492Z,4.10
2018-07-13T21:46:50.870Z,3.87
2018-07-13T21:49:20.272Z,3.83
2018-07-13T21:51:49.640Z,3.50
2018-07-13T21:54:19.309Z,3.30
2018-07-13T21:56:48.702Z,3.50
2018-07-13T21:59:18.058Z,4.03
2018-07-13T22:01:47.490Z,4.17
2018-07-13T22:04:16.592Z,4.03
2018-07-13T22:06:45.919Z,3.90
2018-07-13T22:09:15.023Z,4.13
2018-07-13T22:11:44.109Z,4.10
2018-07-13T22:14:13.479Z,3.83
2018-07-13T22:16:42.857Z,4.00
2018-07-13T22:19:12.216Z,4.20
2018-07-13T22:21:41.604Z,4.17
2018-07-13T22:24:10.972Z,4.27
2018-07-13T22:26:40.412Z,3.67
2018-07-13T22:29:09.435Z,3.57
2018-07-13T22:31:38.797Z,3.40
2018-07-13T22:34:09.409Z,3.47
2018-07-13T22:36:38.760Z,4.20
2018-07-13T22:39:07.860Z,3.40
2018-07-13T22:41:37.220Z,3.50
2018-07-13T22:44:06.592Z,4.20
2018-07-13T22:46:35.937Z,4.63
2018-07-13T22:49:05.349Z,5.00
2018-07-13T22:51:34.713Z,4.73
2018-07-13T22:54:04.128Z,5.57
2018-07-13T22:56:33.438Z,5.47
2018-07-13T22:59:02.779Z,5.27
2018-07-13T23:01:32.135Z,4.67
2018-07-13T23:04:01.497Z,4.30
2018-07-13T23:06:30.840Z,3.13
2018-07-13T23:09:00.201Z,3.57
2018-07-13T23:11:29.573Z,5.50
2018-07-13T23:13:58.929Z,4.37
2018-07-13T23:16:28.288Z,4.28
2018-07-13T23:18:57.769Z,4.23
2018-07-13T23:21:27.124Z,4.23
2018-07-13T23:23:56.613Z,4.20
2018-07-13T23:26:25.848Z,4.50
2018-07-13T23:28:55.218Z,4.87
2018-07-13T23:31:24.596Z,5.13
2018-07-13T23:33:53.953Z,4.60
2018-07-13T23:36:23.307Z,4.53
2018-07-13T23:38:52.660Z,4.53
2018-07-13T23:41:22.026Z,5.30
2018-07-13T23:43:51.497Z,4.53
2018-07-13T23:46:20.812Z,3.70
2018-07-13T23:48:50.187Z,4.10
2018-07-13T23:51:19.275Z,4.43
2018-07-13T23:53:48.387Z,3.97
2018-07-13T23:56:17.725Z,3.97
2018-07-13T23:58:47.118Z,4.53
